Weather at Thorny Woods Airport

Public forecast

Using degrees Fahrenheit for public forecast. Weather courtesy of forecast.io.

Closest aviation weather report (METAR) to Thorny Woods Airport

Closest report is Rockwall Municipal Airport, 8.8 nm (16.3 km) W.

(retrieved 0 seconds ago)

Closest aviation forecast (TAF) to Thorny Woods Airport

Closest forecast is Dallas Love Field, 30.4 nm (56.2 km) WSW.

2024/05/28 18:27 (retrieved 3 hours ago)

TAF KDAL 281724Z 2818/2918 12020G30KT P6SM VCTS FEW050CB BKN120 TEMPO 2818/2819 -TSRA FM281900 11013KT P6SM FEW050 BKN250 FM290500 09009KT P6SM VCTS OVC060CB TEMPO 2906/2910 1SM TSRA BKN025CB FM291100 11004KT 6SM BR VCSH BKN020 FM291700 14008KT P6SM OVC050